KP53

Munising Lakeshore Observation Airport

Michigan, USA
METAR KP53 170256Z AUTO 29010G19KT 03/01 A2992 RMK AO1 SLP138 P0007 60014 T00280006 51016
Observed Flight Rules
Oct-17 @ 02:56 UTC (45 minutes ago)
Wind
290° at 10 knots
 Gusting to 19 knots
Temperatures Readings Precipitation
Current 3°C / 37°F
Dewpoint 1°C / 34°F
Humidity 87%
Altimeter 29.92" Hg
Pressure 1013.8 hPa
Elevation 187
Current Rain 0.07
METAR KP53 170256Z AUTO 29010G19KT 03/01 A2992 RMK AO1 SLP138 P0007 60014 T00280006 51016
Observed Flight Rules
Oct-17 @ 02:56 UTC
(45 minutes ago)
Wind
290° at 10 knots
 Gusting to 19 knots
Temperature Dewpoint
3°C / 37°F 1°C / 34°F
Humidity Altimeter Pressure
87% 29.92" Hg 1013.8 hPa
Current Rain
0.07